Time;durP1;ratioP1;P1;durP2;ratioP2;P2;SDS_P1;SDS_P2;PMS_P1;PMS_P2;Temp;Humidity;BMP_temperature;BMP_pressure;BME280_temperature;BME280_humidity;BME280_pressure;Samples;Min_cycle;Max_cycle;Signal;HPM_P1;HPM_P2
2022/04/08 00:00:04;;;;;;;15.77;2.08;;;;;;;5.28;100.00;99745.13;4997071;28;20392;-46
2022/04/08 00:02:29;;;;;;;14.48;2.60;;;;;;;5.31;100.00;99734.22;4996452;28;20053;-45
2022/04/08 00:04:56;;;;;;;24.30;2.25;;;;;;;5.29;100.00;99742.31;4996404;28;20076;-43
2022/04/08 00:07:21;;;;;;;17.42;2.03;;;;;;;5.32;100.00;99743.84;4996690;28;20401;-43
2022/04/08 00:09:46;;;;;;;20.48;2.30;;;;;;;5.29;100.00;99742.31;4997145;28;20141;-45
2022/04/08 00:12:12;;;;;;;17.73;1.95;;;;;;;5.30;100.00;99738.69;4996745;28;20188;-46
2022/04/08 00:14:37;;;;;;;18.05;2.38;;;;;;;5.27;100.00;99748.78;4997203;28;20029;-45
2022/04/08 00:17:04;;;;;;;17.50;2.55;;;;;;;5.28;100.00;99758.34;4995580;28;20034;-42
2022/04/08 00:19:30;;;;;;;20.55;2.88;;;;;;;5.21;100.00;99760.78;4996771;28;20458;-42
2022/04/08 00:21:55;;;;;;;20.98;4.20;;;;;;;5.28;100.00;99776.88;4996899;28;20021;-42
2022/04/08 00:24:20;;;;;;;21.23;3.28;;;;;;;5.29;100.00;99789.16;4996978;28;20030;-41
2022/04/08 00:26:46;;;;;;;23.70;2.47;;;;;;;5.27;100.00;99791.94;4996216;28;20212;-45
2022/04/08 00:29:16;;;;;;;22.83;2.55;;;;;;;5.23;100.00;99780.84;4997000;28;20126;-43
2022/04/08 00:31:41;;;;;;;19.10;2.92;;;;;;;5.27;100.00;99788.47;4995462;28;20026;-44
2022/04/08 00:34:06;;;;;;;27.77;3.20;;;;;;;5.26;100.00;99790.31;4997146;28;20018;-44
2022/04/08 00:36:32;;;;;;;21.05;2.90;;;;;;;5.26;100.00;99798.25;4999580;28;20040;-44
2022/04/08 00:38:57;;;;;;;22.52;2.45;;;;;;;5.27;100.00;99809.66;5000679;28;20468;-42
2022/04/08 00:41:23;;;;;;;22.67;2.30;;;;;;;5.26;100.00;99795.59;5014698;28;20360;-42
2022/04/08 00:43:48;;;;;;;25.35;2.50;;;;;;;5.25;100.00;99801.03;5000785;28;20171;-43
2022/04/08 00:46:13;;;;;;;22.25;2.85;;;;;;;5.23;100.00;99804.66;4999553;28;20070;-43
2022/04/08 00:48:39;;;;;;;16.75;2.30;;;;;;;5.20;100.00;99804.97;4998338;28;20374;-43
2022/04/08 00:51:06;;;;;;;22.83;2.80;;;;;;;5.22;100.00;99812.75;4999964;28;20030;-47
2022/04/08 00:53:32;;;;;;;25.98;2.42;;;;;;;5.18;100.00;99814.88;5000829;28;20032;-45
2022/04/08 00:55:58;;;;;;;19.30;2.55;;;;;;;5.07;100.00;99812.44;4999730;28;20057;-43
2022/04/08 00:58:25;;;;;;;20.25;1.98;;;;;;;4.98;100.00;99816.81;4999243;28;20088;-44
2022/04/08 01:00:50;;;;;;;17.88;2.22;;;;;;;4.93;100.00;99829.69;4998403;28;20054;-42
2022/04/08 01:03:15;;;;;;;16.98;2.50;;;;;;;4.91;100.00;99839.59;4998592;28;20048;-42
2022/04/08 01:05:41;;;;;;;26.73;2.75;;;;;;;4.87;100.00;99832.91;4999126;28;20025;-43
2022/04/08 01:08:10;;;;;;;15.18;2.15;;;;;;;4.88;100.00;99844.34;4999413;28;20056;-43
2022/04/08 01:10:35;;;;;;;12.15;1.42;;;;;;;4.89;100.00;99844.19;4998991;28;20079;-44
2022/04/08 01:13:01;;;;;;;19.95;2.30;;;;;;;4.86;100.00;99847.13;5000247;28;20034;-47
2022/04/08 01:15:27;;;;;;;23.58;2.88;;;;;;;4.83;100.00;99848.25;4998692;28;20092;-42
2022/04/08 01:17:52;;;;;;;19.95;1.98;;;;;;;4.81;100.00;99850.22;4997476;28;20018;-43
2022/04/08 01:20:18;;;;;;;23.02;2.22;;;;;;;4.77;100.00;99848.88;4999032;28;20037;-44
2022/04/08 01:22:43;;;;;;;20.13;2.50;;;;;;;4.81;100.00;99846.75;4999410;28;20045;-46
2022/04/08 01:25:11;;;;;;;31.25;2.58;;;;;;;4.86;100.00;99863.00;5014372;28;20030;-44
2022/04/08 01:27:37;;;;;;;22.88;2.60;;;;;;;4.86;100.00;99873.59;4996883;28;20029;-46
2022/04/08 01:30:12;;;;;;;22.48;2.70;;;;;;;4.66;100.00;99867.56;4997981;28;20026;-46
2022/04/08 01:32:38;;;;;;;21.70;2.60;;;;;;;4.44;100.00;99882.00;4998432;28;20878;-45
2022/04/08 01:35:05;;;;;;;19.75;2.47;;;;;;;4.29;100.00;99873.69;4999209;28;20120;-43
2022/04/08 01:37:30;;;;;;;19.70;3.25;;;;;;;4.12;100.00;99870.00;4999422;28;20056;-42
2022/04/08 01:39:55;;;;;;;19.20;2.88;;;;;;;4.03;100.00;99881.44;4999047;28;20029;-43
2022/04/08 01:42:24;;;;;;;22.80;2.45;;;;;;;3.94;100.00;99880.50;4998600;28;20076;-42
2022/04/08 01:44:54;;;;;;;17.25;2.53;;;;;;;3.86;100.00;99878.53;4998955;28;20029;-40
2022/04/08 01:47:19;;;;;;;20.33;2.65;;;;;;;3.80;100.00;99876.47;4996915;28;20033;-41
2022/04/08 01:49:45;;;;;;;28.08;3.30;;;;;;;3.78;100.00;99874.94;4998607;28;20351;-42
2022/04/08 01:52:10;;;;;;;22.77;2.78;;;;;;;3.78;100.00;99877.59;4999236;28;20025;-43
2022/04/08 01:54:36;;;;;;;15.68;2.55;;;;;;;3.80;100.00;99875.63;4999194;28;20030;-44
2022/04/08 01:57:01;;;;;;;27.17;3.08;;;;;;;3.79;100.00;99877.44;4998168;28;20438;-44
2022/04/08 01:59:26;;;;;;;32.67;3.53;;;;;;;3.83;100.00;99883.28;4998992;28;20073;-45
2022/04/08 02:01:51;;;;;;;19.73;3.03;;;;;;;3.86;100.00;99888.28;4997533;28;20033;-44
2022/04/08 02:04:17;;;;;;;25.65;2.97;;;;;;;3.91;100.00;99899.25;4998286;28;20045;-44
2022/04/08 02:06:42;;;;;;;24.63;2.53;;;;;;;3.92;100.00;99904.41;4998330;28;20074;-46
2022/04/08 02:09:09;;;;;;;23.23;2.28;;;;;;;3.96;100.00;99917.34;4998486;28;20021;-43
2022/04/08 02:11:35;;;;;;;19.13;2.20;;;;;;;3.93;100.00;99924.53;4997368;28;20444;-43
2022/04/08 02:14:02;;;;;;;18.48;2.00;;;;;;;3.80;100.00;99933.72;4999377;28;20418;-43
2022/04/08 02:16:27;;;;;;;21.20;2.20;;;;;;;3.65;100.00;99917.47;4996979;28;20058;-43
2022/04/08 02:18:52;;;;;;;12.25;1.83;;;;;;;3.51;100.00;99903.75;4998939;28;20432;-43
2022/04/08 02:21:19;;;;;;;13.65;1.55;;;;;;;3.43;100.00;99916.78;4989904;28;20046;-43
2022/04/08 02:23:49;;;;;;;10.20;1.83;;;;;;;3.28;100.00;99904.97;4979521;28;20033;-42
2022/04/08 02:26:16;;;;;;;9.93;1.15;;;;;;;3.17;100.00;99905.91;4977650;28;20433;-45
2022/04/08 02:28:42;;;;;;;10.07;1.40;;;;;;;3.11;100.00;99909.94;4978648;28;20026;-43
2022/04/08 02:31:07;;;;;;;18.15;1.85;;;;;;;3.06;100.00;99900.78;4978185;28;20034;-43
2022/04/08 02:33:32;;;;;;;13.30;1.58;;;;;;;3.05;100.00;99910.47;4978933;28;20453;-42
2022/04/08 02:35:58;;;;;;;18.73;1.80;;;;;;;3.03;100.00;99906.31;4978068;28;20030;-46
2022/04/08 02:38:23;;;;;;;10.50;1.45;;;;;;;2.99;100.00;99909.22;4978533;28;20034;-45
2022/04/08 02:40:49;;;;;;;10.15;1.65;;;;;;;2.97;100.00;99905.88;4977115;28;20033;-42
2022/04/08 02:43:14;;;;;;;14.30;1.52;;;;;;;2.91;100.00;99911.69;4993167;28;20033;-44
2022/04/08 02:45:39;;;;;;;7.93;2.00;;;;;;;2.88;100.00;99904.03;4996747;28;20437;-43
2022/04/08 02:48:04;;;;;;;9.90;1.52;;;;;;;2.89;100.00;99912.81;4997272;28;20038;-43
2022/04/08 02:50:30;;;;;;;8.70;1.48;;;;;;;2.90;100.00;99907.41;4997980;28;20035;-43
2022/04/08 02:52:55;;;;;;;15.60;1.40;;;;;;;2.90;100.00;99907.41;4998174;28;20029;-43
2022/04/08 02:55:21;;;;;;;11.70;2.03;;;;;;;2.88;100.00;99916.41;4996977;28;20037;-43
2022/04/08 02:57:47;;;;;;;12.68;1.55;;;;;;;2.85;100.00;99906.13;4997389;28;20052;-43
2022/04/08 03:00:14;;;;;;;13.15;1.92;;;;;;;2.84;100.00;99912.38;4996373;28;20081;-46
2022/04/08 03:02:39;;;;;;;9.38;1.65;;;;;;;2.81;100.00;99913.47;4997183;28;20025;-43
2022/04/08 03:05:06;;;;;;;11.15;1.80;;;;;;;2.77;100.00;99907.63;4997807;28;20080;-45
2022/04/08 03:07:32;;;;;;;15.55;2.15;;;;;;;2.79;100.00;99910.97;4996677;28;20033;-43
2022/04/08 03:09:57;;;;;;;15.82;2.30;;;;;;;2.75;100.00;99914.00;4996635;28;20040;-43
2022/04/08 03:12:22;;;;;;;12.70;2.15;;;;;;;2.71;100.00;99909.97;4997435;28;20029;-44
2022/04/08 03:14:48;;;;;;;19.10;2.00;;;;;;;2.76;100.00;99920.94;4996641;28;20030;-43
2022/04/08 03:17:13;;;;;;;17.15;2.42;;;;;;;2.73;100.00;99921.19;4997358;28;20049;-45
2022/04/08 03:19:38;;;;;;;24.60;2.78;;;;;;;2.74;100.00;99926.34;4996858;28;20111;-45
2022/04/08 03:22:06;;;;;;;20.75;2.20;;;;;;;2.72;100.00;99922.19;4997286;28;20018;-43
2022/04/08 03:24:31;;;;;;;18.65;2.83;;;;;;;2.74;100.00;99936.06;4995912;28;20037;-45
2022/04/08 03:26:56;;;;;;;19.38;2.58;;;;;;;2.73;100.00;99934.38;4996570;28;20033;-43
2022/04/08 03:29:21;;;;;;;21.13;2.22;;;;;;;2.72;100.00;99933.56;4997188;28;20025;-43
2022/04/08 03:31:47;;;;;;;14.40;2.50;;;;;;;2.68;100.00;99936.59;4987859;28;20058;-43
2022/04/08 03:34:12;;;;;;;23.48;3.38;;;;;;;2.69;100.00;99933.00;4977725;28;20026;-45
2022/04/08 03:36:38;;;;;;;22.27;2.65;;;;;;;2.68;100.00;99945.34;4977372;28;20168;-43
2022/04/08 03:39:03;;;;;;;23.60;2.97;;;;;;;2.70;100.00;99951.31;4977559;28;20029;-42
2022/04/08 03:41:28;;;;;;;23.45;3.10;;;;;;;2.70;100.00;99940.78;4977034;28;20063;-43
2022/04/08 03:43:53;;;;;;;23.90;2.63;;;;;;;2.72;100.00;99959.09;4978529;28;20552;-44
2022/04/08 03:46:19;;;;;;;21.30;2.80;;;;;;;2.71;100.00;99947.69;4976132;28;20088;-44
2022/04/08 03:48:44;;;;;;;18.73;2.80;;;;;;;2.69;100.00;99944.38;4982765;28;20109;-43
2022/04/08 03:51:09;;;;;;;14.02;2.35;;;;;;;2.70;100.00;99953.97;4996878;28;20045;-43
2022/04/08 03:53:35;;;;;;;33.40;3.17;;;;;;;2.73;100.00;99972.16;4997114;28;20026;-44
2022/04/08 03:56:02;;;;;;;27.05;2.85;;;;;;;2.67;100.00;99950.75;4996996;28;20103;-43
2022/04/08 03:58:27;;;;;;;30.23;2.70;;;;;;;2.69;100.00;99964.63;4997375;28;20032;-45
2022/04/08 04:00:53;;;;;;;23.10;2.58;;;;;;;2.65;100.00;99955.31;4994552;28;20058;-47
2022/04/08 04:03:19;;;;;;;18.10;2.63;;;;;;;2.62;100.00;99964.31;4995165;28;20030;-46
2022/04/08 04:05:44;;;;;;;21.70;2.70;;;;;;;2.58;100.00;99957.63;4995207;28;20025;-44
2022/04/08 04:08:15;;;;;;;15.85;2.78;;;;;;;2.55;100.00;99955.28;4996093;28;20108;-42
2022/04/08 04:10:40;;;;;;;18.50;2.70;;;;;;;2.52;100.00;99956.34;4997013;28;20531;-42
2022/04/08 04:13:05;;;;;;;23.13;3.00;;;;;;;2.49;100.00;99950.53;5001055;28;20022;-43
2022/04/08 04:15:31;;;;;;;19.05;3.30;;;;;;;2.49;100.00;99956.63;4999395;28;20127;-44
2022/04/08 04:17:56;;;;;;;17.67;2.88;;;;;;;2.47;100.00;99949.81;4998762;28;20472;-44
2022/04/08 04:20:22;;;;;;;18.10;2.50;;;;;;;2.45;100.00;99957.03;4998487;28;20034;-44
2022/04/08 04:22:47;;;;;;;23.20;3.33;;;;;;;2.41;100.00;99951.16;4999751;28;20021;-42
2022/04/08 04:25:12;;;;;;;14.25;2.60;;;;;;;2.36;100.00;99941.03;4998290;28;20029;-43
2022/04/08 04:27:38;;;;;;;19.30;3.22;;;;;;;2.36;100.00;99943.66;4998535;28;20026;-42
2022/04/08 04:30:03;;;;;;;14.73;3.17;;;;;;;2.31;100.00;99945.00;4999194;28;20108;-42
2022/04/08 04:32:29;;;;;;;16.45;2.95;;;;;;;2.29;100.00;99942.53;4998327;28;20083;-43
2022/04/08 04:34:54;;;;;;;17.25;2.83;;;;;;;2.25;100.00;99954.28;5000866;28;20410;-44
2022/04/08 04:37:19;;;;;;;14.68;2.50;;;;;;;2.22;100.00;99955.38;4998682;28;20046;-43
2022/04/08 04:39:44;;;;;;;16.60;2.85;;;;;;;2.20;100.00;99954.66;4999537;28;20030;-42
2022/04/08 04:42:10;;;;;;;15.23;2.58;;;;;;;2.20;100.00;99952.00;4998967;28;20117;-43
2022/04/08 04:44:35;;;;;;;16.23;2.70;;;;;;;2.19;100.00;99947.72;4999406;28;20021;-43
2022/04/08 04:47:00;;;;;;;14.98;3.08;;;;;;;2.21;100.00;99958.13;4999988;28;20041;-42
2022/04/08 04:49:26;;;;;;;15.52;3.17;;;;;;;2.18;100.00;99959.22;4999993;28;20140;-42
2022/04/08 04:51:51;;;;;;;18.52;2.80;;;;;;;2.16;100.00;99958.53;4999785;28;20492;-46
2022/04/08 04:54:17;;;;;;;18.30;3.67;;;;;;;2.15;100.00;99954.19;4995201;28;20033;-44
2022/04/08 04:56:43;;;;;;;20.15;3.67;;;;;;;2.14;100.00;99956.97;4994721;28;20042;-43
2022/04/08 04:59:08;;;;;;;20.02;3.75;;;;;;;2.14;100.00;99957.81;4999678;28;20281;-45
2022/04/08 05:01:33;;;;;;;15.80;3.75;;;;;;;2.15;100.00;99966.53;4997311;28;20480;-44
2022/04/08 05:03:59;;;;;;;26.15;3.70;;;;;;;2.16;100.00;99960.31;5000187;28;20025;-42
2022/04/08 05:06:24;;;;;;;15.05;3.53;;;;;;;2.16;100.00;99952.44;4998192;28;20128;-46
2022/04/08 05:08:49;;;;;;;17.05;3.88;;;;;;;2.17;100.00;99954.06;5014071;28;20057;-43
2022/04/08 05:11:15;;;;;;;15.23;4.20;;;;;;;2.15;100.00;99959.47;4999104;28;20499;-44
2022/04/08 05:13:41;;;;;;;21.33;4.35;;;;;;;2.18;100.00;99955.75;4998332;28;20507;-44
2022/04/08 05:16:07;;;;;;;20.25;5.22;;;;;;;2.17;100.00;99962.84;4998999;28;20030;-43
2022/04/08 05:18:32;;;;;;;25.05;5.03;;;;;;;2.17;100.00;99968.09;4999168;28;20028;-46
2022/04/08 05:20:58;;;;;;;19.13;5.05;;;;;;;2.17;100.00;99959.34;4998646;28;20030;-45
2022/04/08 05:23:28;;;;;;;20.33;5.55;;;;;;;2.22;100.00;99970.31;4999445;28;20040;-45
2022/04/08 05:25:54;;;;;;;18.88;5.60;;;;;;;2.25;100.00;99967.44;4997599;28;20531;-45
2022/04/08 05:28:19;;;;;;;19.75;5.60;;;;;;;2.30;100.00;99967.06;4998446;28;20017;-45
2022/04/08 05:30:44;;;;;;;25.85;6.15;;;;;;;2.34;100.00;99958.78;4996732;28;20037;-43
2022/04/08 05:33:10;;;;;;;15.10;5.25;;;;;;;2.41;100.00;99951.16;4997651;28;20026;-47
2022/04/08 05:35:35;;;;;;;23.92;5.22;;;;;;;2.46;100.00;99949.00;4994914;28;20053;-43
2022/04/08 05:38:00;;;;;;;21.42;5.72;;;;;;;2.54;100.00;99943.88;4998383;28;20028;-44
2022/04/08 05:40:25;;;;;;;19.17;5.38;;;;;;;2.59;100.00;99939.03;4997974;28;20033;-41
2022/04/08 05:42:51;;;;;;;18.50;5.40;;;;;;;2.67;100.00;99933.13;4998220;28;20045;-41
2022/04/08 05:45:21;;;;;;;17.10;5.40;;;;;;;2.75;100.00;99938.56;4996194;28;20492;-43
2022/04/08 05:47:47;;;;;;;20.20;5.00;;;;;;;2.82;100.00;99930.13;5011573;28;20412;-46
2022/04/08 05:50:14;;;;;;;21.55;5.97;;;;;;;2.88;100.00;99938.31;4998092;28;20460;-44
2022/04/08 05:52:39;;;;;;;21.85;5.60;;;;;;;2.93;100.00;99940.56;4997088;28;20181;-43
2022/04/08 05:55:05;;;;;;;12.65;4.70;;;;;;;2.99;100.00;99927.69;4998789;28;20512;-44
2022/04/08 05:57:35;;;;;;;22.52;5.28;;;;;;;3.03;100.00;99927.41;4993661;28;20054;-44
2022/04/08 06:00:00;;;;;;;17.38;4.63;;;;;;;3.03;100.00;99930.88;4993476;28;20136;-43
2022/04/08 06:02:26;;;;;;;22.08;5.40;;;;;;;3.03;100.00;99924.78;4994223;28;20532;-44
2022/04/08 06:04:51;;;;;;;16.05;5.13;;;;;;;3.06;100.00;99927.16;4998097;28;20179;-44
2022/04/08 06:07:16;;;;;;;21.88;5.40;;;;;;;3.08;100.00;99928.66;4997324;28;20199;-45
2022/04/08 06:09:41;;;;;;;23.35;5.65;;;;;;;3.10;100.00;99924.09;4998364;28;20528;-45
2022/04/08 06:12:07;;;;;;;27.65;5.25;;;;;;;3.12;100.00;99939.78;4997787;28;20084;-42
2022/04/08 06:14:33;;;;;;;23.75;5.80;;;;;;;3.15;100.00;99929.78;4994389;28;20129;-42
2022/04/08 06:16:58;;;;;;;18.73;5.57;;;;;;;3.17;100.00;99933.16;4997095;28;20022;-45
2022/04/08 06:19:23;;;;;;;22.02;6.63;;;;;;;3.24;100.00;99932.59;4997212;28;20128;-44
2022/04/08 06:21:48;;;;;;;14.90;5.53;;;;;;;3.26;100.00;99928.84;4997627;28;20110;-42
2022/04/08 06:24:14;;;;;;;21.00;6.25;;;;;;;3.32;100.00;99932.75;4998264;28;20460;-41
2022/04/08 06:26:39;;;;;;;14.07;6.60;;;;;;;3.38;100.00;99934.00;4997259;28;20070;-44
2022/04/08 06:29:05;;;;;;;17.38;6.88;;;;;;;3.45;100.00;99935.97;4997300;28;20014;-42
2022/04/08 06:31:32;;;;;;;18.67;7.13;;;;;;;3.54;100.00;99945.69;4997722;28;20064;-42
2022/04/08 06:33:59;;;;;;;17.60;7.45;;;;;;;3.65;100.00;99933.31;4998219;28;20026;-42
2022/04/08 06:36:25;;;;;;;21.80;9.18;;;;;;;3.78;100.00;99938.31;4997111;28;20495;-44
2022/04/08 06:38:50;;;;;;;19.00;9.10;;;;;;;3.90;100.00;99934.56;5013452;28;20109;-42
2022/04/08 06:41:16;;;;;;;26.70;9.60;;;;;;;3.98;100.00;99925.94;4997264;28;20228;-44
2022/04/08 06:43:41;;;;;;;26.25;8.95;;;;;;;4.10;100.00;99911.59;4997314;28;20405;-43
2022/04/08 06:46:06;;;;;;;18.38;8.77;;;;;;;4.18;100.00;99916.19;4996524;28;20108;-46
2022/04/08 06:48:33;;;;;;;22.65;8.65;;;;;;;4.33;100.00;99908.59;4997014;28;20068;-46
2022/04/08 06:51:00;;;;;;;20.13;8.98;;;;;;;4.44;100.00;99909.25;4994516;28;20025;-43
2022/04/08 06:53:25;;;;;;;27.35;9.90;;;;;;;4.53;100.00;99909.38;4997598;28;20029;-47
2022/04/08 06:55:50;;;;;;;22.40;9.27;;;;;;;4.58;100.00;99904.47;4997110;28;20034;-44
2022/04/08 06:58:16;;;;;;;21.30;9.82;;;;;;;4.63;100.00;99908.38;4997666;28;20029;-44
2022/04/08 07:00:41;;;;;;;18.38;9.45;;;;;;;4.69;100.00;99914.88;5011178;28;20044;-43
2022/04/08 07:03:06;;;;;;;25.10;9.38;;;;;;;4.78;100.00;99910.53;5017200;28;20376;-44
2022/04/08 07:05:31;;;;;;;31.77;10.10;;;;;;;4.89;100.00;99913.00;5017930;28;20016;-42
2022/04/08 07:07:58;;;;;;;21.67;8.18;;;;;;;4.94;100.00;99917.81;5016927;28;20645;-43
2022/04/08 07:10:24;;;;;;;20.77;8.55;;;;;;;5.00;100.00;99907.47;5017736;28;20142;-43
2022/04/08 07:12:52;;;;;;;21.08;8.18;;;;;;;5.07;100.00;99918.31;5017069;28;20497;-43
2022/04/08 07:15:18;;;;;;;17.02;7.72;;;;;;;5.09;100.00;99911.06;4977411;28;20759;-48
2022/04/08 07:17:43;;;;;;;25.20;8.88;;;;;;;5.11;100.00;99905.59;4977609;28;20018;-45
2022/04/08 07:20:08;;;;;;;21.95;8.95;;;;;;;5.12;100.00;99905.44;4977276;28;20042;-43
2022/04/08 07:22:34;;;;;;;23.35;9.65;;;;;;;5.13;100.00;99907.13;4975190;28;20516;-46
2022/04/08 07:24:59;;;;;;;20.83;9.20;;;;;;;5.14;100.00;99903.50;4978753;28;20093;-42
2022/04/08 07:27:25;;;;;;;18.65;8.32;;;;;;;5.18;100.00;99899.56;4977985;28;20130;-46
2022/04/08 07:29:50;;;;;;;23.52;9.25;;;;;;;5.17;100.00;99895.25;4996333;28;20520;-45
2022/04/08 07:32:25;;;;;;;22.67;9.30;;;;;;;5.23;100.00;99904.44;4996007;28;20053;-45
2022/04/08 07:34:51;;;;;;;22.13;9.00;;;;;;;5.34;100.00;99906.00;4996580;28;20143;-45
2022/04/08 07:37:30;;;;;;;18.42;8.57;;;;;;;5.44;100.00;99914.72;4996210;28;20014;-43
2022/04/08 07:39:56;;;;;;;17.65;7.55;;;;;;;5.47;100.00;99898.53;4995217;28;20445;-43
2022/04/08 07:42:21;;;;;;;22.40;8.77;;;;;;;5.52;100.00;99900.72;4995839;28;20018;-44
2022/04/08 07:44:47;;;;;;;18.67;7.72;;;;;;;5.58;100.00;99903.63;4996055;28;20036;-42
2022/04/08 07:47:12;;;;;;;20.20;8.05;;;;;;;5.67;100.00;99899.22;4999672;28;20034;-43
2022/04/08 07:49:38;;;;;;;18.45;7.13;;;;;;;5.78;100.00;99898.94;4999133;28;20079;-47
2022/04/08 07:52:03;;;;;;;28.98;8.00;;;;;;;5.81;100.00;99903.13;5001025;28;20022;-47
2022/04/08 07:54:29;;;;;;;16.20;7.15;;;;;;;5.85;100.00;99901.00;4983983;28;20457;-46
2022/04/08 07:56:54;;;;;;;21.35;7.45;;;;;;;5.92;100.00;99902.91;4999309;28;20136;-43
2022/04/08 07:59:19;;;;;;;17.40;7.53;;;;;;;5.98;100.00;99899.63;4999679;28;20033;-44
2022/04/08 08:01:46;;;;;;;21.02;7.43;;;;;;;6.04;100.00;99895.56;4999893;28;20089;-47
2022/04/08 08:04:11;;;;;;;18.27;7.47;;;;;;;6.08;100.00;99901.38;4999446;28;20396;-41
2022/04/08 08:06:36;;;;;;;12.98;6.30;;;;;;;6.10;100.00;99900.22;4999974;28;20086;-46
2022/04/08 08:09:02;;;;;;;14.43;6.85;;;;;;;6.12;100.00;99892.13;5001437;28;20113;-43
2022/04/08 08:11:27;;;;;;;19.80;7.03;;;;;;;6.17;100.00;99897.78;5000194;28;20416;-47
2022/04/08 08:13:53;;;;;;;18.08;6.25;;;;;;;6.08;100.00;99893.44;4999809;28;20462;-43
2022/04/08 08:16:18;;;;;;;15.90;7.28;;;;;;;6.08;100.00;99894.25;4998677;28;20491;-45
2022/04/08 08:18:43;;;;;;;16.40;6.40;;;;;;;6.15;100.00;99894.47;5000574;28;20026;-43
2022/04/08 08:21:09;;;;;;;21.48;6.82;;;;;;;6.19;100.00;99881.72;4999428;28;20060;-42
2022/04/08 08:23:34;;;;;;;23.20;6.50;;;;;;;6.28;100.00;99886.91;4990016;28;20103;-41
2022/04/08 08:25:59;;;;;;;17.98;6.88;;;;;;;6.31;100.00;99885.75;5000346;28;20033;-43
2022/04/08 08:28:25;;;;;;;18.25;6.75;;;;;;;6.42;100.00;99897.94;4999919;28;20038;-42
2022/04/08 08:30:50;;;;;;;21.08;5.82;;;;;;;6.50;100.00;99890.00;5000069;28;20116;-42
2022/04/08 08:33:15;;;;;;;18.38;6.82;;;;;;;6.56;100.00;99892.03;5000497;28;20017;-43
2022/04/08 08:35:41;;;;;;;17.38;6.53;;;;;;;6.61;100.00;99881.78;5000921;28;20030;-47
2022/04/08 08:38:07;;;;;;;15.27;6.55;;;;;;;6.65;100.00;99879.63;5001420;28;20056;-43
2022/04/08 08:40:33;;;;;;;15.10;6.57;;;;;;;6.81;100.00;99877.06;5000565;28;20369;-45
2022/04/08 08:43:00;;;;;;;19.52;6.43;;;;;;;6.99;100.00;99871.66;5001374;28;20025;-44
2022/04/08 08:45:32;;;;;;;14.20;5.78;;;;;;;7.02;100.00;99863.31;5001281;28;20022;-47
2022/04/08 08:48:02;;;;;;;17.95;6.07;;;;;;;7.07;100.00;99861.00;5002045;28;20079;-45
2022/04/08 08:50:29;;;;;;;16.60;6.30;;;;;;;7.16;100.00;99859.22;5000708;28;20448;-44
2022/04/08 08:52:55;;;;;;;15.77;6.00;;;;;;;7.19;100.00;99853.56;5001648;28;20030;-48
2022/04/08 08:55:20;;;;;;;17.42;5.25;;;;;;;7.21;100.00;99856.91;4999883;28;20030;-44
2022/04/08 08:57:47;;;;;;;10.57;5.18;;;;;;;7.32;100.00;99855.75;4999844;28;20026;-45
2022/04/08 09:00:16;;;;;;;15.23;5.38;;;;;;;7.35;98.75;99842.16;4999222;28;20145;-43
2022/04/08 09:02:45;;;;;;;11.75;4.43;;;;;;;7.32;97.18;99844.31;4999751;28;20022;-45
2022/04/08 09:05:16;;;;;;;15.57;4.28;;;;;;;7.33;96.60;99845.97;5000808;28;20042;-43
2022/04/08 09:07:42;;;;;;;13.63;4.95;;;;;;;7.37;98.84;99834.84;4998715;28;20021;-42
2022/04/08 09:10:08;;;;;;;14.00;4.50;;;;;;;7.51;98.83;99832.53;5000513;28;20029;-43
2022/04/08 09:12:33;;;;;;;16.65;4.53;;;;;;;7.50;97.01;99826.38;5000201;28;20057;-42
2022/04/08 09:15:00;;;;;;;13.68;4.25;;;;;;;7.63;96.12;99828.53;4999299;28;20058;-43
2022/04/08 09:17:27;;;;;;;14.95;4.43;;;;;;;7.63;98.41;99833.84;4999863;28;20026;-44
2022/04/08 09:19:55;;;;;;;15.85;4.10;;;;;;;7.74;97.26;99830.84;5000015;28;20040;-46
2022/04/08 09:22:21;;;;;;;19.30;3.85;;;;;;;7.79;91.15;99831.19;4998230;28;20461;-45
2022/04/08 09:24:47;;;;;;;11.85;4.07;;;;;;;7.82;93.07;99832.66;4992404;28;20065;-46
2022/04/08 09:27:13;;;;;;;13.73;3.85;;;;;;;7.83;93.30;99835.16;4996829;28;20061;-43
2022/04/08 09:29:45;;;;;;;16.50;4.93;;;;;;;7.79;90.67;99835.66;5009507;28;20033;-43
2022/04/08 09:32:17;;;;;;;21.98;4.40;;;;;;;7.75;92.56;99829.84;4999113;28;20159;-46
2022/04/08 09:34:42;;;;;;;15.95;4.15;;;;;;;7.79;93.68;99825.03;5000147;28;20511;-43
2022/04/08 09:37:12;;;;;;;17.88;4.47;;;;;;;7.80;92.12;99822.19;5000010;28;20041;-45
2022/04/08 09:40:03;;;;;;;9.57;4.50;;;;;;;7.89;95.44;99825.69;5000192;28;20033;-48
2022/04/08 09:42:42;;;;;;;18.20;4.00;;;;;;;7.92;91.17;99821.84;5000293;28;20025;-44
2022/04/08 09:45:09;;;;;;;14.48;4.70;;;;;;;7.88;93.05;99816.06;4999607;28;20033;-46
2022/04/08 09:47:34;;;;;;;13.73;3.85;;;;;;;7.91;92.44;99821.03;4996349;28;20037;-43
2022/04/08 09:50:00;;;;;;;11.77;3.95;;;;;;;7.79;90.03;99820.56;5000503;28;20045;-44
2022/04/08 09:52:26;;;;;;;20.10;4.70;;;;;;;7.67;92.55;99824.53;4999560;28;20118;-44
2022/04/08 09:54:53;;;;;;;13.05;4.35;;;;;;;7.74;94.20;99828.19;5000170;28;20048;-46
2022/04/08 09:57:18;;;;;;;15.45;4.38;;;;;;;7.89;93.51;99823.03;4999218;28;20014;-41
2022/04/08 09:59:52;;;;;;;13.55;4.28;;;;;;;8.00;90.24;99819.19;4997634;28;20451;-43
2022/04/08 10:02:18;;;;;;;13.43;4.20;;;;;;;8.02;91.82;99817.19;4997076;28;20465;-43
2022/04/08 10:04:44;;;;;;;14.50;4.38;;;;;;;8.17;90.15;99823.44;4999395;28;20140;-42
2022/04/08 10:07:10;;;;;;;10.65;3.85;;;;;;;8.20;86.53;99823.13;4999424;28;20111;-51
2022/04/08 10:09:47;;;;;;;22.63;3.80;;;;;;;8.24;88.45;99818.28;4998888;28;20038;-47
2022/04/08 10:12:36;;;;;;;17.73;4.18;;;;;;;8.25;87.36;99817.28;4999101;28;20022;-47
2022/04/08 10:15:26;;;;;;;14.88;4.32;;;;;;;8.26;89.42;99818.94;4997031;28;20037;-46
2022/04/08 10:17:58;;;;;;;21.73;4.32;;;;;;;8.31;89.81;99810.44;4979210;28;20019;-43
2022/04/08 10:20:24;;;;;;;18.40;4.80;;;;;;;8.31;83.77;99819.25;4978732;28;20034;-45
2022/04/08 10:22:51;;;;;;;15.75;3.97;;;;;;;8.24;85.41;99812.13;4996379;28;20091;-46
2022/04/08 10:25:18;;;;;;;19.58;3.78;;;;;;;8.22;87.30;99823.78;4998483;28;20030;-45
2022/04/08 10:27:44;;;;;;;15.48;3.85;;;;;;;8.21;89.41;99816.81;4998457;28;20033;-47
2022/04/08 10:30:23;;;;;;;21.10;4.18;;;;;;;8.25;85.92;99816.44;4998268;28;20113;-42
2022/04/08 10:33:06;;;;;;;13.15;3.50;;;;;;;8.27;86.80;99817.94;4999047;28;20033;-43
2022/04/08 10:35:31;;;;;;;22.30;4.30;;;;;;;8.23;87.58;99808.63;4999533;28;20117;-44
2022/04/08 10:38:03;;;;;;;23.95;5.13;;;;;;;8.23;86.95;99800.66;4998783;28;20097;-41
2022/04/08 10:40:33;;;;;;;12.07;4.05;;;;;;;8.21;82.92;99808.84;4999143;28;20496;-44
2022/04/08 10:43:03;;;;;;;23.55;4.85;;;;;;;8.15;85.38;99801.53;4999110;28;20044;-43
2022/04/08 10:45:29;;;;;;;14.32;4.53;;;;;;;8.24;86.47;99801.50;4998626;28;20112;-43
2022/04/08 10:47:59;;;;;;;12.98;4.70;;;;;;;8.24;83.42;99801.50;4998174;28;20030;-48
2022/04/08 10:50:30;;;;;;;14.25;4.10;;;;;;;8.30;84.13;99803.44;4998634;28;20107;-45
2022/04/08 10:53:07;;;;;;;13.50;3.95;;;;;;;8.30;84.31;99808.78;4996568;28;20037;-44
2022/04/08 10:55:50;;;;;;;20.77;4.70;;;;;;;8.39;82.42;99815.75;4998492;28;20179;-43
2022/04/08 10:58:44;;;;;;;19.15;4.80;;;;;;;8.43;81.37;99817.06;4998404;28;20200;-43
2022/04/08 11:01:24;;;;;;;12.10;4.07;;;;;;;8.47;85.19;99805.09;4995971;28;20515;-43
2022/04/08 11:03:53;;;;;;;17.05;4.68;;;;;;;8.51;85.74;99803.75;4998486;28;20029;-42
2022/04/08 11:06:19;;;;;;;20.02;4.80;;;;;;;8.57;85.18;99803.06;4997365;28;20348;-43
2022/04/08 11:08:45;;;;;;;19.77;5.53;;;;;;;8.55;83.97;99807.72;4998277;28;20141;-44
2022/04/08 11:11:11;;;;;;;22.05;4.82;;;;;;;8.48;83.21;99800.59;4997946;28;20030;-45
2022/04/08 11:13:40;;;;;;;15.18;4.55;;;;;;;8.55;85.23;99790.91;4995570;28;20527;-44
2022/04/08 11:16:05;;;;;;;16.15;4.75;;;;;;;8.53;82.00;99777.78;4996511;28;20117;-42
2022/04/08 11:18:30;;;;;;;15.85;5.20;;;;;;;8.44;83.31;99773.50;4997341;28;20030;-41
2022/04/08 11:20:56;;;;;;;15.07;4.90;;;;;;;8.46;84.42;99781.31;4997071;28;20310;-42
2022/04/08 11:23:29;;;;;;;25.85;5.82;;;;;;;8.50;83.24;99794.13;4997566;28;20037;-42